Terminal Aerodrome Forecast
Issued by NWS

Home | Current Version | Previous Version | Text Only | Print | Product List | Glossary On
Versions: 1 2 3 4 5 6 7 8 9 10 11 12 13 14 15
000
FTUS43 KFGF 240500
TAFTVF
TAF
KTVF 240522Z 2406/2506 15018KT P6SM OVC035
      TEMPO 2406/2410 5SM -RA OVC015
     FM241000 11015KT P6SM OVC025
      AMD LTD TO CLD VIS AND WIND=

USA.gov is the U.S. government's official web portal to all federal, state and local government web resources and services.